Time;durP1;ratioP1;P1;durP2;ratioP2;P2;SDS_P1;SDS_P2;PMS_P1;PMS_P2;Temp;Humidity;BMP_temperature;BMP_pressure;BME280_temperature;BME280_humidity;BME280_pressure;Samples;Min_cycle;Max_cycle;Signal;HPM_P1;HPM_P2
2023/03/27 00:00:28;;;;;;;0.55;0.55;;;2.90;99.90;;;;;;6240178;23;20035;-70
2023/03/27 00:02:53;;;;;;;0.60;0.60;;;2.90;99.90;;;;;;6214696;23;20437;-70
2023/03/27 00:05:20;;;;;;;0.60;0.60;;;2.90;99.90;;;;;;6214833;23;20399;-71
2023/03/27 00:07:48;;;;;;;0.52;0.52;;;2.90;99.90;;;;;;6216723;23;20020;-70
2023/03/27 00:10:15;;;;;;;0.60;0.60;;;2.90;99.90;;;;;;6216182;23;20488;-70
2023/03/27 00:12:43;;;;;;;0.90;0.90;;;2.90;99.90;;;;;;6214708;23;20091;-70
2023/03/27 00:15:14;;;;;;;0.80;0.80;;;2.70;99.90;;;;;;6215079;23;20112;-70
2023/03/27 00:17:41;;;;;;;0.73;0.73;;;2.80;99.90;;;;;;6214627;23;20016;-71
2023/03/27 00:20:07;;;;;;;0.50;0.50;;;2.80;99.90;;;;;;6214715;23;20342;-70
2023/03/27 00:22:33;;;;;;;0.77;0.77;;;2.70;99.90;;;;;;6189438;23;20096;-71
2023/03/27 00:24:58;;;;;;;0.70;0.70;;;2.80;99.90;;;;;;6216600;23;20426;-70
2023/03/27 00:27:24;;;;;;;0.60;0.60;;;2.60;99.90;;;;;;6214594;23;20461;-71
2023/03/27 00:29:49;;;;;;;0.70;0.70;;;2.70;99.90;;;;;;6214597;23;20012;-71
2023/03/27 00:32:15;;;;;;;0.75;0.70;;;2.60;99.90;;;;;;6239858;23;20092;-71
2023/03/27 00:34:41;;;;;;;0.57;0.57;;;2.40;99.90;;;;;;6214505;23;20024;-71
2023/03/27 00:37:06;;;;;;;0.70;0.70;;;2.40;99.90;;;;;;6215869;23;20024;-71
2023/03/27 00:39:32;;;;;;;0.70;0.70;;;2.40;99.90;;;;;;6214942;23;20016;-70
2023/03/27 00:41:58;;;;;;;0.57;0.57;;;2.50;99.90;;;;;;6214391;23;20017;-70
2023/03/27 00:44:33;;;;;;;0.70;0.70;;;2.50;99.90;;;;;;6214747;23;20035;-71
2023/03/27 00:47:01;;;;;;;0.60;0.60;;;2.50;99.90;;;;;;6214492;23;20008;-71
2023/03/27 00:49:30;;;;;;;0.68;0.68;;;2.50;99.90;;;;;;6216306;23;20114;-71
2023/03/27 00:51:57;;;;;;;0.70;0.70;;;2.40;99.90;;;;;;6239746;23;20016;-71
2023/03/27 00:54:28;;;;;;;0.68;0.68;;;2.40;99.90;;;;;;6216362;23;20022;-70
2023/03/27 00:56:58;;;;;;;0.63;0.63;;;2.40;99.90;;;;;;6215826;23;20013;-71
2023/03/27 00:59:29;;;;;;;0.73;0.73;;;2.40;99.90;;;;;;6215632;23;20020;-71
2023/03/27 01:01:56;;;;;;;0.70;0.70;;;2.40;99.90;;;;;;6216222;23;20013;-71
2023/03/27 01:04:22;;;;;;;0.60;0.60;;;2.50;99.90;;;;;;6215938;23;20012;-71
2023/03/27 01:06:52;;;;;;;0.70;0.70;;;2.50;99.90;;;;;;6216505;23;20497;-71
2023/03/27 01:09:18;;;;;;;0.55;0.55;;;2.50;99.90;;;;;;6216169;23;20012;-70
2023/03/27 01:12:19;;;;;;;0.60;0.60;;;2.60;99.90;;;;;;6239489;23;20013;-71
2023/03/27 01:15:08;;;;;;;0.60;0.60;;;2.60;99.90;;;;;;6099636;23;20022;-71
2023/03/27 01:17:36;;;;;;;0.50;0.50;;;2.60;99.90;;;;;;6124836;23;20327;-71
2023/03/27 01:20:16;;;;;;;0.70;0.70;;;2.50;99.90;;;;;;6124591;23;20055;-71
2023/03/27 01:23:30;;;;;;;0.68;0.68;;;2.50;99.90;;;;;;6124999;23;20423;-71
2023/03/27 01:26:26;;;;;;;0.70;0.70;;;2.40;99.90;;;;;;6111282;23;20022;-70
2023/03/27 01:28:57;;;;;;;0.63;0.63;;;2.40;99.90;;;;;;6124001;23;20335;-70
2023/03/27 01:31:38;;;;;;;0.70;0.70;;;2.20;99.90;;;;;;6099669;23;20017;-71
2023/03/27 01:34:27;;;;;;;0.63;0.63;;;2.10;99.90;;;;;;6123995;23;20015;-71
2023/03/27 01:37:01;;;;;;;0.75;0.75;;;2.10;99.90;;;;;;6123758;23;20185;-71
2023/03/27 01:39:43;;;;;;;0.80;0.80;;;2.10;99.90;;;;;;6124081;23;20385;-70
2023/03/27 01:42:20;;;;;;;0.75;0.75;;;2.10;99.90;;;;;;6099474;23;20022;-70
2023/03/27 01:45:10;;;;;;;0.63;0.63;;;2.10;99.90;;;;;;6099648;23;20096;-70
2023/03/27 01:47:52;;;;;;;0.73;0.73;;;2.10;99.90;;;;;;6099508;23;20025;-71
2023/03/27 01:50:36;;;;;;;0.70;0.70;;;2.10;99.90;;;;;;6168117;23;20013;-70
2023/03/27 01:53:07;;;;;;;0.60;0.60;;;2.20;99.90;;;;;;6216057;23;20017;-71
2023/03/27 01:55:37;;;;;;;0.70;0.70;;;2.30;99.90;;;;;;6215624;23;20013;-71
2023/03/27 01:58:26;;;;;;;0.70;0.70;;;2.30;99.90;;;;;;6215078;23;20432;-71
2023/03/27 02:00:56;;;;;;;1.10;1.00;;;2.30;99.90;;;;;;6216258;23;20083;-70
2023/03/27 02:03:36;;;;;;;0.60;0.60;;;2.30;99.90;;;;;;6213952;23;20020;-71
2023/03/27 02:06:32;;;;;;;0.60;0.60;;;2.20;99.90;;;;;;6214096;23;20012;-71
2023/03/27 02:09:12;;;;;;;0.70;0.70;;;2.20;99.90;;;;;;6212891;23;20019;-71
2023/03/27 02:11:49;;;;;;;;;;;2.10;99.90;;;;;;6216465;23;20113;-70
2023/03/27 02:14:20;;;;;;;0.75;0.75;;;2.20;99.90;;;;;;6215993;23;19918;-70
2023/03/27 02:16:51;;;;;;;0.52;0.52;;;2.10;99.90;;;;;;6190848;23;20107;-70
2023/03/27 02:19:25;;;;;;;0.60;0.60;;;2.20;99.90;;;;;;6215942;23;20013;-70
2023/03/27 02:21:51;;;;;;;0.50;0.50;;;2.20;99.90;;;;;;6241079;23;20013;-70
2023/03/27 02:24:17;;;;;;;0.60;0.60;;;2.20;99.90;;;;;;6215843;23;20067;-70
2023/03/27 02:26:44;;;;;;;0.70;0.70;;;2.00;99.90;;;;;;6217824;23;20013;-70
2023/03/27 02:29:38;;;;;;;0.80;0.80;;;2.00;99.90;;;;;;6215766;23;20028;-70
2023/03/27 02:32:27;;;;;;;0.77;0.77;;;1.90;99.90;;;;;;6145661;23;20016;-70
2023/03/27 02:35:01;;;;;;;0.63;0.63;;;1.80;99.90;;;;;;6215948;23;20387;-70
2023/03/27 02:37:51;;;;;;;0.70;0.70;;;1.80;99.90;;;;;;6190526;23;20016;-70
2023/03/27 02:40:43;;;;;;;0.68;0.68;;;1.80;99.90;;;;;;6217702;23;20013;-70
2023/03/27 02:43:41;;;;;;;0.63;0.63;;;1.70;99.90;;;;;;6213287;23;20013;-70
2023/03/27 02:46:18;;;;;;;0.82;0.70;;;1.60;99.90;;;;;;6190032;23;20389;-70
2023/03/27 02:48:58;;;;;;;0.63;0.63;;;1.50;99.90;;;;;;6217623;23;20008;-70
2023/03/27 02:51:33;;;;;;;;;;;1.50;99.90;;;;;;6218033;23;20013;-70
2023/03/27 02:54:07;;;;;;;0.73;0.73;;;1.40;99.90;;;;;;6215547;23;20247;-70
2023/03/27 02:56:38;;;;;;;0.57;0.57;;;1.30;99.90;;;;;;6215537;23;20012;-70
2023/03/27 02:59:12;;;;;;;0.70;0.70;;;1.40;99.90;;;;;;6217492;23;20051;-70
2023/03/27 03:01:38;;;;;;;0.77;0.68;;;1.40;99.90;;;;;;6241701;23;20013;-70
2023/03/27 03:04:19;;;;;;;0.50;0.50;;;1.70;99.90;;;;;;6215530;23;20019;-70
2023/03/27 03:06:44;;;;;;;0.57;0.57;;;1.80;99.90;;;;;;6217120;23;20012;-70
2023/03/27 03:09:13;;;;;;;0.60;0.60;;;2.00;99.90;;;;;;6218157;23;20008;-70
2023/03/27 03:11:46;;;;;;;0.80;0.80;;;2.20;99.90;;;;;;6215453;23;20016;-70
2023/03/27 03:14:12;;;;;;;0.50;0.50;;;2.10;99.90;;;;;;6217687;23;20091;-70
2023/03/27 03:16:37;;;;;;;0.65;0.65;;;2.30;99.90;;;;;;6240671;23;20460;-70
2023/03/27 03:19:03;;;;;;;0.52;0.50;;;2.30;99.90;;;;;;6240229;23;20009;-70
2023/03/27 03:21:30;;;;;;;0.60;0.60;;;2.30;99.90;;;;;;6217033;23;20364;-70
2023/03/27 03:23:56;;;;;;;0.65;0.65;;;2.20;99.90;;;;;;6217218;23;20414;-70
2023/03/27 03:26:22;;;;;;;0.65;0.65;;;2.20;99.90;;;;;;6217191;23;20012;-70
2023/03/27 03:28:47;;;;;;;0.60;0.60;;;2.20;99.90;;;;;;6190165;23;20406;-70
2023/03/27 03:31:14;;;;;;;0.80;0.80;;;2.00;99.90;;;;;;6240405;23;20020;-70
2023/03/27 03:33:39;;;;;;;0.60;0.60;;;2.00;99.90;;;;;;6216706;23;20521;-70
2023/03/27 03:36:05;;;;;;;0.60;0.60;;;1.90;99.90;;;;;;6214757;23;20020;-70
2023/03/27 03:38:34;;;;;;;0.77;0.70;;;1.90;99.90;;;;;;6215126;23;20025;-70
2023/03/27 03:41:00;;;;;;;0.70;0.70;;;1.80;99.90;;;;;;6214875;23;20087;-70
2023/03/27 03:43:29;;;;;;;0.73;0.73;;;1.70;99.90;;;;;;6216482;23;20008;-70
2023/03/27 03:45:54;;;;;;;0.65;0.65;;;1.60;99.90;;;;;;6215049;23;20027;-70
2023/03/27 03:48:21;;;;;;;0.60;0.60;;;1.60;99.90;;;;;;6216515;23;20387;-70
2023/03/27 03:50:48;;;;;;;0.63;0.60;;;1.50;99.90;;;;;;6214994;23;20020;-70
2023/03/27 03:53:15;;;;;;;0.65;0.65;;;1.50;99.90;;;;;;6215016;23;20096;-70
2023/03/27 03:55:41;;;;;;;0.70;0.70;;;1.50;99.90;;;;;;6214968;23;20083;-70
2023/03/27 03:58:08;;;;;;;0.75;0.75;;;1.30;99.90;;;;;;6216834;23;20039;-70
2023/03/27 04:00:37;;;;;;;0.70;0.70;;;1.20;99.90;;;;;;6216521;23;20016;-70
2023/03/27 04:03:05;;;;;;;0.60;0.60;;;1.20;99.90;;;;;;6216748;23;20012;-70
2023/03/27 04:05:33;;;;;;;0.70;0.70;;;1.20;99.90;;;;;;6216775;23;20017;-70
2023/03/27 04:07:59;;;;;;;0.60;0.60;;;1.20;99.90;;;;;;6216654;23;20023;-70
2023/03/27 04:10:25;;;;;;;0.50;0.50;;;1.20;99.90;;;;;;6216665;23;20079;-70
2023/03/27 04:12:51;;;;;;;0.80;0.75;;;1.10;99.90;;;;;;6240125;23;20027;-70
2023/03/27 04:15:17;;;;;;;0.60;0.60;;;1.20;99.90;;;;;;6216558;23;20334;-70
2023/03/27 04:17:44;;;;;;;0.70;0.70;;;1.20;99.90;;;;;;6239957;23;20013;-70
2023/03/27 04:20:14;;;;;;;0.63;0.63;;;1.30;99.90;;;;;;6214687;23;20027;-70
2023/03/27 04:22:45;;;;;;;;;;;1.30;99.90;;;;;;6215867;23;20020;-70
2023/03/27 04:25:12;;;;;;;0.60;0.60;;;1.30;99.90;;;;;;6214717;23;19916;-70
2023/03/27 04:27:38;;;;;;;0.60;0.60;;;1.30;99.90;;;;;;6214646;23;20292;-71
2023/03/27 04:30:07;;;;;;;0.90;0.80;;;1.30;99.90;;;;;;6216595;23;20005;-70
2023/03/27 04:32:33;;;;;;;0.88;0.88;;;1.30;99.90;;;;;;6216386;23;20023;-70
2023/03/27 04:34:59;;;;;;;0.60;0.60;;;1.30;99.90;;;;;;6214952;23;20376;-68
2023/03/27 04:37:25;;;;;;;0.60;0.60;;;1.20;99.90;;;;;;6189457;23;20067;-70
2023/03/27 04:39:51;;;;;;;0.65;0.65;;;1.40;99.90;;;;;;6216620;23;20092;-70
2023/03/27 04:42:21;;;;;;;0.70;0.70;;;1.40;99.90;;;;;;6214559;23;20044;-70
2023/03/27 04:44:47;;;;;;;0.70;0.70;;;1.50;99.90;;;;;;6214583;23;20013;-70
2023/03/27 04:47:13;;;;;;;0.60;0.60;;;1.60;99.90;;;;;;6239736;23;20019;-70
2023/03/27 04:49:45;;;;;;;0.60;0.60;;;1.70;99.90;;;;;;6216327;23;20088;-70
2023/03/27 04:52:13;;;;;;;0.60;0.60;;;1.70;99.90;;;;;;6216330;23;20012;-70
2023/03/27 04:54:39;;;;;;;0.70;0.70;;;1.70;99.90;;;;;;6214483;23;20016;-70
2023/03/27 04:57:06;;;;;;;0.90;0.90;;;1.70;99.90;;;;;;6216300;23;20008;-69
2023/03/27 04:59:32;;;;;;;0.80;0.80;;;1.70;99.90;;;;;;6189382;23;20017;-70
2023/03/27 05:02:01;;;;;;;0.63;0.63;;;1.60;99.90;;;;;;6216178;23;20074;-70
2023/03/27 05:04:28;;;;;;;0.55;0.55;;;1.60;99.90;;;;;;6214375;23;20016;-70
2023/03/27 05:06:54;;;;;;;0.68;0.60;;;1.50;99.90;;;;;;6214349;23;20027;-70
2023/03/27 05:09:21;;;;;;;0.70;0.70;;;1.60;99.90;;;;;;6189574;23;20019;-69
2023/03/27 05:11:48;;;;;;;0.60;0.60;;;1.50;99.90;;;;;;6216187;23;20016;-70
2023/03/27 05:14:22;;;;;;;0.70;0.70;;;1.50;99.90;;;;;;6216175;23;20075;-71
2023/03/27 05:16:51;;;;;;;0.80;0.80;;;1.50;99.90;;;;;;6214657;23;20013;-66
2023/03/27 05:19:18;;;;;;;0.60;0.60;;;1.50;99.90;;;;;;6189169;23;20012;-69
2023/03/27 05:21:45;;;;;;;0.73;0.73;;;1.40;99.90;;;;;;6214203;23;20058;-69
2023/03/27 05:24:12;;;;;;;0.60;0.60;;;1.30;99.90;;;;;;6216102;23;20012;-69
2023/03/27 05:26:38;;;;;;;0.80;0.80;;;1.30;99.90;;;;;;6214341;23;20012;-69
2023/03/27 05:29:04;;;;;;;0.70;0.70;;;1.30;99.90;;;;;;6214255;23;20016;-69
2023/03/27 05:31:34;;;;;;;0.70;0.70;;;1.40;99.90;;;;;;6214583;23;20044;-69
2023/03/27 05:34:00;;;;;;;0.65;0.65;;;1.70;99.90;;;;;;6239511;23;20059;-69
2023/03/27 05:36:27;;;;;;;0.60;0.60;;;1.80;99.90;;;;;;6213956;23;20481;-69
2023/03/27 05:38:53;;;;;;;0.60;0.60;;;1.90;99.90;;;;;;6215713;23;20087;-69
2023/03/27 05:41:19;;;;;;;0.88;0.88;;;2.00;99.90;;;;;;6214486;23;20386;-69
2023/03/27 05:43:45;;;;;;;0.93;0.73;;;1.90;99.90;;;;;;6215314;23;20017;-69
2023/03/27 05:46:12;;;;;;;0.70;0.70;;;1.90;99.90;;;;;;6216189;23;20016;-69
2023/03/27 05:48:38;;;;;;;0.70;0.70;;;2.00;99.90;;;;;;6191026;23;20058;-69
2023/03/27 05:51:08;;;;;;;0.63;0.63;;;1.90;99.90;;;;;;6216524;23;20008;-69
2023/03/27 05:53:35;;;;;;;0.70;0.70;;;1.90;99.90;;;;;;6216150;23;20012;-70
2023/03/27 05:56:01;;;;;;;0.60;0.60;;;1.90;99.90;;;;;;6216027;23;20016;-69
2023/03/27 05:58:27;;;;;;;0.60;0.60;;;2.00;99.90;;;;;;6216036;23;20016;-70
2023/03/27 06:00:53;;;;;;;0.73;0.73;;;2.10;99.90;;;;;;6216056;23;20012;-72
2023/03/27 06:03:19;;;;;;;0.60;0.60;;;2.10;99.90;;;;;;6217811;23;20016;-72
2023/03/27 06:05:45;;;;;;;0.60;0.60;;;2.10;99.90;;;;;;6190874;23;20013;-72
2023/03/27 06:08:11;;;;;;;0.70;0.70;;;2.10;99.90;;;;;;6216997;23;20036;-72
2023/03/27 06:10:40;;;;;;;0.80;0.80;;;2.10;99.90;;;;;;6216000;23;20070;-72
2023/03/27 06:13:07;;;;;;;0.70;0.70;;;2.20;99.90;;;;;;6216101;23;20024;-72
2023/03/27 06:15:36;;;;;;;0.60;0.60;;;2.30;99.90;;;;;;6217848;23;20051;-72
2023/03/27 06:18:02;;;;;;;0.70;0.70;;;2.40;99.90;;;;;;6215743;23;20070;-72
2023/03/27 06:20:28;;;;;;;0.85;0.85;;;2.50;99.90;;;;;;6241052;23;20013;-72
2023/03/27 06:23:00;;;;;;;0.60;0.60;;;2.50;99.90;;;;;;6217175;23;20400;-72
2023/03/27 06:25:30;;;;;;;0.55;0.55;;;2.70;99.90;;;;;;6215829;23;20051;-72
2023/03/27 06:27:56;;;;;;;0.60;0.60;;;2.70;99.90;;;;;;6215854;23;20008;-71
2023/03/27 06:30:23;;;;;;;0.70;0.70;;;2.70;99.90;;;;;;6190747;23;20009;-71
2023/03/27 06:32:58;;;;;;;0.68;0.68;;;2.90;99.90;;;;;;6215788;23;20074;-72
2023/03/27 06:35:26;;;;;;;0.60;0.60;;;2.90;99.90;;;;;;6217261;23;20421;-72
2023/03/27 06:37:52;;;;;;;0.63;0.63;;;2.90;99.90;;;;;;6216073;23;20024;-72
2023/03/27 06:40:23;;;;;;;0.50;0.50;;;3.00;99.90;;;;;;6217125;23;20111;-72
2023/03/27 06:42:54;;;;;;;0.70;0.70;;;3.10;99.90;;;;;;6190520;23;20016;-72
2023/03/27 06:45:26;;;;;;;0.60;0.60;;;3.10;99.90;;;;;;6190657;23;20075;-72
2023/03/27 06:48:02;;;;;;;0.60;0.60;;;3.20;99.90;;;;;;6215741;23;20438;-72
2023/03/27 06:50:30;;;;;;;0.60;0.60;;;3.20;99.90;;;;;;6215634;23;20039;-72
2023/03/27 06:52:57;;;;;;;0.52;0.52;;;3.30;99.90;;;;;;6217186;23;20017;-72
2023/03/27 06:55:26;;;;;;;0.70;0.70;;;3.40;99.90;;;;;;6217470;23;20048;-72
2023/03/27 06:57:54;;;;;;;0.60;0.60;;;3.50;99.90;;;;;;6215613;23;20023;-72
2023/03/27 07:00:23;;;;;;;0.80;0.80;;;3.50;99.90;;;;;;6217441;23;20055;-73
2023/03/27 07:03:01;;;;;;;0.70;0.70;;;3.70;99.90;;;;;;6190368;23;20012;-72
2023/03/27 07:05:29;;;;;;;0.50;0.50;;;3.80;99.90;;;;;;6215322;23;20020;-72
2023/03/27 07:07:55;;;;;;;0.50;0.50;;;3.90;99.90;;;;;;6217302;23;20338;-72
2023/03/27 07:10:23;;;;;;;0.65;0.65;;;3.90;99.90;;;;;;6215339;23;20503;-72
2023/03/27 07:12:50;;;;;;;0.50;0.50;;;4.00;99.90;;;;;;6215351;23;20024;-72
2023/03/27 07:15:17;;;;;;;0.60;0.60;;;4.00;99.90;;;;;;6190275;23;20008;-72
2023/03/27 07:17:43;;;;;;;0.55;0.55;;;4.00;99.90;;;;;;6217176;23;20075;-72
2023/03/27 07:20:12;;;;;;;0.60;0.60;;;4.10;99.90;;;;;;6215338;23;20099;-72
2023/03/27 07:22:41;;;;;;;0.60;0.60;;;4.20;99.90;;;;;;6215172;23;20091;-72
2023/03/27 07:25:09;;;;;;;0.60;0.60;;;4.20;99.90;;;;;;6215609;23;20005;-72
2023/03/27 07:27:34;;;;;;;0.60;0.60;;;4.20;99.90;;;;;;6215223;23;20008;-72
2023/03/27 07:30:01;;;;;;;0.60;0.60;;;4.20;99.90;;;;;;6215223;23;20062;-72
2023/03/27 07:32:28;;;;;;;0.68;0.68;;;4.20;99.90;;;;;;6216770;23;20020;-72
2023/03/27 07:34:55;;;;;;;0.60;0.60;;;4.20;99.90;;;;;;6215198;23;20052;-72
2023/03/27 07:37:22;;;;;;;0.60;0.60;;;4.40;99.90;;;;;;6241163;23;20020;-72
2023/03/27 07:39:47;;;;;;;0.52;0.52;;;4.40;99.90;;;;;;6216646;23;20389;-72
2023/03/27 07:42:13;;;;;;;0.50;0.50;;;4.40;99.90;;;;;;6214924;23;20012;-72
2023/03/27 07:44:39;;;;;;;0.60;0.60;;;4.50;99.90;;;;;;6240313;23;20099;-72
2023/03/27 07:47:05;;;;;;;0.70;0.70;;;4.50;99.90;;;;;;6215077;23;20364;-72
2023/03/27 07:49:31;;;;;;;0.60;0.60;;;4.50;99.90;;;;;;6214951;23;20012;-72
2023/03/27 07:51:57;;;;;;;0.68;0.68;;;4.70;99.90;;;;;;6215019;23;20388;-72
2023/03/27 07:54:23;;;;;;;0.60;0.60;;;4.60;99.90;;;;;;6215404;23;20016;-72
2023/03/27 07:56:49;;;;;;;0.52;0.52;;;4.70;99.90;;;;;;6216908;23;20016;-72
2023/03/27 07:59:19;;;;;;;0.60;0.60;;;4.90;99.90;;;;;;6240245;23;20428;-72
2023/03/27 08:01:47;;;;;;;0.60;0.60;;;5.00;99.90;;;;;;6216762;23;20013;-72
2023/03/27 08:04:14;;;;;;;0.60;0.60;;;5.10;99.90;;;;;;6214938;23;20013;-72
2023/03/27 08:06:39;;;;;;;0.60;0.60;;;5.30;99.90;;;;;;6216551;23;20392;-71
2023/03/27 08:09:05;;;;;;;0.60;0.60;;;5.30;99.90;;;;;;6189697;23;20516;-72
2023/03/27 08:11:31;;;;;;;0.70;0.70;;;5.50;99.90;;;;;;6215219;23;20019;-72
2023/03/27 08:13:58;;;;;;;0.60;0.60;;;5.60;99.90;;;;;;6240057;23;20044;-72
2023/03/27 08:16:27;;;;;;;0.50;0.50;;;5.70;99.90;;;;;;6216677;23;20020;-72
2023/03/27 08:18:53;;;;;;;0.40;0.40;;;6.10;99.90;;;;;;6214736;23;20020;-72
2023/03/27 08:21:19;;;;;;;0.60;0.60;;;6.10;99.90;;;;;;6239935;23;20062;-72
2023/03/27 08:23:46;;;;;;;0.47;0.47;;;6.10;99.90;;;;;;6214657;23;20023;-72
2023/03/27 08:26:13;;;;;;;0.60;0.60;;;6.00;99.90;;;;;;6216414;23;20036;-72
2023/03/27 08:28:39;;;;;;;0.50;0.50;;;5.70;99.90;;;;;;6214611;23;20012;-72
2023/03/27 08:31:11;;;;;;;0.40;0.40;;;5.50;99.90;;;;;;6240058;23;20311;-72
2023/03/27 08:33:37;;;;;;;0.55;0.55;;;5.50;99.90;;;;;;6214730;23;20086;-72
2023/03/27 08:36:04;;;;;;;0.50;0.50;;;5.50;99.90;;;;;;6189418;23;20017;-72
2023/03/27 08:38:32;;;;;;;0.50;0.50;;;5.40;99.90;;;;;;6214975;23;20017;-72
2023/03/27 08:41:02;;;;;;;0.55;0.55;;;5.40;99.90;;;;;;6214905;23;20005;-72
2023/03/27 08:43:46;;;;;;;;;;;5.40;99.90;;;;;;6216834;23;20071;-72
2023/03/27 08:46:30;;;;;;;0.50;0.50;;;5.50;99.90;;;;;;6189496;23;19916;-72
2023/03/27 08:49:07;;;;;;;0.50;0.50;;;5.50;99.90;;;;;;6214899;23;20325;-72
2023/03/27 08:51:38;;;;;;;0.50;0.50;;;5.50;99.90;;;;;;6215363;23;20410;-71
2023/03/27 08:54:22;;;;;;;0.40;0.40;;;5.50;99.90;;;;;;6189367;23;20012;-71
2023/03/27 08:56:49;;;;;;;0.40;0.40;;;5.50;99.90;;;;;;6214515;23;20016;-71
2023/03/27 08:59:20;;;;;;;0.52;0.52;;;5.60;99.90;;;;;;6214440;23;20017;-71
2023/03/27 09:02:04;;;;;;;0.50;0.50;;;5.60;99.90;;;;;;6216284;23;20009;-71
2023/03/27 09:04:52;;;;;;;0.50;0.50;;;5.80;99.90;;;;;;6216229;23;20017;-71
2023/03/27 09:07:36;;;;;;;0.50;0.50;;;5.90;99.90;;;;;;6216607;23;20322;-71
2023/03/27 09:10:12;;;;;;;0.50;0.50;;;5.80;99.90;;;;;;6214327;23;20012;-71
2023/03/27 09:12:43;;;;;;;0.50;0.50;;;5.80;99.90;;;;;;6239573;23;20038;-71
2023/03/27 09:15:24;;;;;;;0.55;0.50;;;5.90;99.90;;;;;;6216200;23;20016;-71
2023/03/27 09:18:05;;;;;;;0.77;0.77;;;5.90;99.90;;;;;;6213872;23;20086;-71
2023/03/27 09:20:37;;;;;;;0.50;0.50;;;6.00;99.90;;;;;;6239501;23;20012;-71
2023/03/27 09:23:27;;;;;;;0.40;0.40;;;6.10;99.90;;;;;;6215704;23;20009;-71
2023/03/27 09:25:55;;;;;;;;;;;6.30;99.90;;;;;;6214645;23;20023;-72
2023/03/27 09:28:34;;;;;;;0.40;0.40;;;6.50;99.90;;;;;;6214390;23;19912;-72
2023/03/27 09:31:14;;;;;;;0.50;0.50;;;6.70;99.90;;;;;;6214251;23;20013;-72
2023/03/27 09:33:41;;;;;;;0.52;0.52;;;6.90;99.90;;;;;;6215832;23;20024;-71
2023/03/27 09:36:07;;;;;;;0.40;0.40;;;6.70;99.90;;;;;;6213837;23;20116;-71
2023/03/27 09:38:43;;;;;;;0.55;0.55;;;6.50;99.90;;;;;;6214795;23;20032;-71
2023/03/27 09:41:16;;;;;;;0.60;0.60;;;6.40;99.90;;;;;;6239458;23;20126;-71
2023/03/27 09:43:57;;;;;;;0.47;0.47;;;6.40;99.90;;;;;;6215884;23;20011;-71
2023/03/27 09:46:25;;;;;;;0.55;0.55;;;6.60;99.90;;;;;;6214222;23;20084;-71
2023/03/27 09:49:05;;;;;;;0.60;0.60;;;6.80;99.90;;;;;;6214048;23;20105;-71
2023/03/27 09:51:36;;;;;;;0.70;0.70;;;6.80;99.90;;;;;;6239280;23;20144;-72
2023/03/27 09:54:02;;;;;;;0.65;0.65;;;6.30;99.90;;;;;;6214478;23;20071;-71
2023/03/27 09:56:29;;;;;;;0.43;0.43;;;6.10;99.90;;;;;;6213894;23;20020;-72
2023/03/27 09:58:56;;;;;;;0.45;0.45;;;6.00;99.90;;;;;;6213995;23;20051;-71
2023/03/27 10:01:36;;;;;;;0.50;0.50;;;6.30;99.90;;;;;;6214611;23;20391;-71
2023/03/27 10:04:12;;;;;;;0.45;0.45;;;6.40;99.90;;;;;;6213988;23;20079;-72
2023/03/27 10:07:04;;;;;;;0.47;0.47;;;6.60;99.90;;;;;;6239340;23;20044;-72
2023/03/27 10:09:34;;;;;;;0.40;0.40;;;6.90;99.90;;;;;;6215971;23;20013;-71
2023/03/27 10:12:06;;;;;;;0.40;0.40;;;6.90;99.90;;;;;;6215932;23;20021;-71
2023/03/27 10:14:45;;;;;;;0.45;0.45;;;6.70;99.90;;;;;;6214056;23;20023;-72
2023/03/27 10:17:25;;;;;;;0.40;0.40;;;6.90;99.90;;;;;;6215609;23;20071;-71
2023/03/27 10:20:00;;;;;;;0.40;0.40;;;7.10;98.30;;;;;;6216014;23;20039;-71
2023/03/27 10:22:33;;;;;;;0.40;0.40;;;7.40;98.60;;;;;;6213925;23;20013;-71
2023/03/27 10:25:02;;;;;;;0.30;0.30;;;7.60;99.60;;;;;;6188937;23;20467;-72
2023/03/27 10:27:32;;;;;;;0.50;0.50;;;7.80;99.30;;;;;;6215351;23;20094;-72
2023/03/27 10:29:57;;;;;;;;;;;7.80;97.40;;;;;;6217621;23;20008;-72
2023/03/27 10:32:44;;;;;;;0.30;0.30;;;7.70;96.90;;;;;;6217678;23;19931;-72
2023/03/27 10:35:38;;;;;;;0.30;0.30;;;7.70;97.10;;;;;;6215737;23;20090;-72
2023/03/27 10:38:15;;;;;;;0.40;0.40;;;7.80;96.30;;;;;;6211305;23;20020;-72
2023/03/27 10:40:46;;;;;;;0.45;0.45;;;7.90;95.70;;;;;;6217596;23;20040;-72
2023/03/27 10:43:16;;;;;;;0.60;0.60;;;8.10;97.80;;;;;;6217498;23;20088;-72
2023/03/27 10:45:57;;;;;;;0.30;0.30;;;8.30;98.70;;;;;;6215615;23;20088;-72
2023/03/27 10:48:59;;;;;;;0.47;0.47;;;7.80;94.90;;;;;;6217293;23;20013;-72
2023/03/27 10:51:43;;;;;;;0.50;0.50;;;7.10;96.30;;;;;;6216491;23;20017;-72
2023/03/27 10:54:27;;;;;;;0.52;0.52;;;6.90;98.60;;;;;;6190561;23;20044;-72
2023/03/27 10:56:56;;;;;;;0.40;0.40;;;7.00;99.40;;;;;;6217136;23;20463;-72
2023/03/27 10:59:45;;;;;;;0.40;0.40;;;7.20;99.90;;;;;;6215444;23;20017;-72
2023/03/27 11:02:16;;;;;;;0.45;0.45;;;7.60;99.90;;;;;;6214744;23;20020;-70
2023/03/27 11:05:14;;;;;;;0.40;0.40;;;7.80;99.20;;;;;;6215429;23;20043;-72
2023/03/27 11:07:43;;;;;;;0.40;0.40;;;7.90;99.90;;;;;;6216348;23;20016;-71
2023/03/27 11:10:34;;;;;;;0.40;0.40;;;8.00;96.40;;;;;;6215440;23;20008;-69
2023/03/27 11:13:30;;;;;;;0.32;0.32;;;8.10;97.30;;;;;;6191641;23;20067;-71
2023/03/27 11:16:02;;;;;;;0.32;0.32;;;8.20;95.40;;;;;;6215341;23;20020;-72
2023/03/27 11:18:39;;;;;;;0.40;0.40;;;8.40;94.30;;;;;;6217218;23;20075;-72
2023/03/27 11:21:29;;;;;;;0.38;0.38;;;8.50;93.30;;;;;;6215311;23;20020;-71
2023/03/27 11:23:57;;;;;;;0.30;0.30;;;8.30;92.40;;;;;;6214302;23;20024;-71
2023/03/27 11:26:31;;;;;;;0.40;0.40;;;8.30;91.60;;;;;;6215566;23;20057;-72
2023/03/27 11:29:14;;;;;;;0.47;0.47;;;8.40;92.60;;;;;;6215271;23;20019;-72
2023/03/27 11:31:44;;;;;;;0.50;0.50;;;8.40;93.10;;;;;;6215561;23;20017;-72
2023/03/27 11:34:43;;;;;;;0.40;0.40;;;8.60;92.60;;;;;;6215300;23;20059;-72
2023/03/27 11:37:37;;;;;;;0.38;0.38;;;8.80;91.00;;;;;;6216785;23;20017;-71
2023/03/27 11:40:12;;;;;;;0.40;0.40;;;9.00;90.60;;;;;;6216734;23;20016;-72
2023/03/27 11:42:41;;;;;;;0.40;0.40;;;9.00;91.80;;;;;;6215035;23;20039;-72
2023/03/27 11:45:17;;;;;;;0.40;0.40;;;9.00;92.20;;;;;;6240446;23;20480;-72
2023/03/27 11:47:58;;;;;;;0.40;0.40;;;9.00;91.80;;;;;;6215064;23;20445;-72
2023/03/27 11:50:52;;;;;;;0.40;0.40;;;8.70;86.40;;;;;;6240153;23;20147;-71
2023/03/27 11:53:47;;;;;;;0.30;0.30;;;8.90;89.50;;;;;;6216918;23;20390;-72
2023/03/27 11:56:23;;;;;;;0.40;0.40;;;9.10;90.30;;;;;;6124838;23;20017;-72
2023/03/27 11:59:19;;;;;;;0.40;0.40;;;9.30;91.20;;;;;;6076158;23;20096;-72
2023/03/27 12:01:57;;;;;;;0.47;0.47;;;9.50;91.00;;;;;;6100107;23;20469;-71
2023/03/27 12:04:54;;;;;;;0.32;0.32;;;9.70;93.60;;;;;;6124670;23;20020;-72
2023/03/27 12:07:26;;;;;;;0.40;0.40;;;8.80;99.90;;;;;;6100325;23;20022;-72
2023/03/27 12:10:18;;;;;;;0.40;0.40;;;7.40;99.90;;;;;;6100060;23;20010;-72
2023/03/27 12:13:01;;;;;;;0.50;0.50;;;6.80;99.90;;;;;;6100166;23;20032;-72
2023/03/27 12:15:33;;;;;;;0.50;0.50;;;6.00;99.90;;;;;;6100043;23;20014;-71
2023/03/27 12:18:11;;;;;;;0.50;0.50;;;5.80;99.90;;;;;;6124644;23;20050;-71
2023/03/27 12:20:56;;;;;;;0.60;0.60;;;5.40;99.90;;;;;;6077070;23;20339;-71
2023/03/27 12:23:37;;;;;;;0.50;0.50;;;5.70;99.90;;;;;;6124427;23;20018;-72
2023/03/27 12:26:24;;;;;;;0.40;0.40;;;5.90;99.90;;;;;;6099955;23;20041;-72
2023/03/27 12:29:23;;;;;;;0.40;0.40;;;6.20;99.90;;;;;;6099947;23;20029;-72
2023/03/27 12:32:41;;;;;;;0.40;0.40;;;6.50;99.90;;;;;;6115895;23;20019;-72
2023/03/27 12:35:20;;;;;;;0.50;0.50;;;6.80;99.90;;;;;;6216414;23;20040;-71
2023/03/27 12:38:01;;;;;;;0.50;0.50;;;7.20;99.90;;;;;;6216039;23;20350;-72
2023/03/27 12:40:48;;;;;;;0.55;0.55;;;7.60;99.90;;;;;;6216546;23;20012;-72
2023/03/27 12:43:17;;;;;;;0.50;0.50;;;8.10;99.90;;;;;;6214328;23;20016;-72
2023/03/27 12:46:08;;;;;;;0.50;0.50;;;8.20;99.90;;;;;;6214466;23;20070;-72
2023/03/27 12:48:48;;;;;;;0.40;0.40;;;8.20;99.90;;;;;;6214498;23;20016;-72
2023/03/27 12:51:18;;;;;;;0.40;0.40;;;8.30;97.30;;;;;;6214443;23;20156;-72
2023/03/27 12:53:53;;;;;;;0.40;0.40;;;8.60;96.40;;;;;;6214425;23;20070;-72
2023/03/27 12:56:18;;;;;;;0.47;0.47;;;8.80;93.30;;;;;;6214485;23;20125;-72
2023/03/27 12:58:50;;;;;;;0.40;0.40;;;8.90;91.90;;;;;;6239616;23;20024;-72
2023/03/27 13:01:56;;;;;;;0.50;0.50;;;9.00;90.20;;;;;;6215988;23;20016;-72
2023/03/27 13:05:00;;;;;;;0.40;0.40;;;9.10;90.30;;;;;;6183580;23;20441;-72
2023/03/27 13:07:40;;;;;;;0.50;0.50;;;8.80;90.80;;;;;;6214472;23;20404;-71
2023/03/27 13:10:19;;;;;;;0.60;0.60;;;8.50;91.30;;;;;;6214509;23;20043;-72
2023/03/27 13:13:04;;;;;;;0.50;0.50;;;8.50;92.10;;;;;;6216336;23;20013;-72
2023/03/27 13:16:04;;;;;;;0.50;0.50;;;8.70;91.70;;;;;;6216277;23;20067;-71
2023/03/27 13:18:48;;;;;;;0.50;0.50;;;8.80;91.10;;;;;;6189196;23;20024;-71
2023/03/27 13:21:25;;;;;;;0.50;0.50;;;8.50;91.90;;;;;;6239576;23;20013;-71
2023/03/27 13:24:13;;;;;;;0.50;0.50;;;7.40;99.90;;;;;;6239501;23;20315;-72
2023/03/27 13:26:47;;;;;;;0.50;0.50;;;6.80;99.90;;;;;;6216094;23;20016;-72
2023/03/27 13:29:17;;;;;;;0.43;0.43;;;7.20;99.90;;;;;;6216063;23;20092;-71